Time;durP1;ratioP1;P1;durP2;ratioP2;P2;SDS_P1;SDS_P2;PMS_P1;PMS_P2;Temp;Humidity;BMP_temperature;BMP_pressure;BME280_temperature;BME280_humidity;BME280_pressure;Samples;Min_cycle;Max_cycle;Signal;HPM_P1;HPM_P2
2022/08/14 00:02:02;;;;;;;9.43;5.03;;;14.50;99.90;;;;;;5051107;28;20030;-80
2022/08/14 00:04:29;;;;;;;12.43;4.88;;;14.50;99.90;;;;;;5049359;28;20070;-79
2022/08/14 00:06:55;;;;;;;7.70;4.55;;;14.50;99.90;;;;;;5050785;28;20508;-79
2022/08/14 00:09:20;;;;;;;6.55;4.78;;;14.40;99.90;;;;;;5051135;28;20029;-80
2022/08/14 00:11:46;;;;;;;5.57;4.47;;;14.40;99.90;;;;;;5050103;28;20112;-80
2022/08/14 00:14:12;;;;;;;5.53;4.30;;;14.40;99.90;;;;;;5049670;28;20037;-80
2022/08/14 00:16:37;;;;;;;7.38;5.07;;;14.40;99.90;;;;;;5051030;28;20025;-79
2022/08/14 00:19:03;;;;;;;7.38;4.78;;;14.30;99.90;;;;;;5051077;28;20029;-79
2022/08/14 00:21:29;;;;;;;7.30;4.40;;;14.30;99.90;;;;;;5051016;28;20068;-79
2022/08/14 00:23:55;;;;;;;6.20;4.60;;;14.30;99.90;;;;;;5049577;28;20040;-79
2022/08/14 00:26:22;;;;;;;8.02;4.25;;;14.30;99.90;;;;;;5050979;28;20033;-80
2022/08/14 00:28:48;;;;;;;6.80;4.22;;;14.20;99.90;;;;;;5050649;28;20067;-79
2022/08/14 00:31:14;;;;;;;7.65;5.57;;;14.20;99.90;;;;;;5051015;28;20036;-79
2022/08/14 00:33:40;;;;;;;13.32;8.10;;;14.20;99.90;;;;;;5049412;28;20017;-79
2022/08/14 00:36:06;;;;;;;16.13;9.68;;;14.20;99.90;;;;;;5050622;28;20025;-79
2022/08/14 00:38:32;;;;;;;10.95;6.28;;;14.20;99.90;;;;;;5050672;28;20032;-79
2022/08/14 00:40:58;;;;;;;6.78;4.57;;;14.20;99.90;;;;;;5049187;28;20040;-79
2022/08/14 00:43:23;;;;;;;5.25;4.40;;;14.20;99.90;;;;;;5031426;28;20029;-79
2022/08/14 00:45:49;;;;;;;6.88;4.20;;;14.10;99.90;;;;;;5050799;28;20063;-80
2022/08/14 00:48:16;;;;;;;8.35;4.20;;;14.10;99.90;;;;;;5050490;28;20033;-80
2022/08/14 00:50:42;;;;;;;10.32;4.60;;;14.10;99.90;;;;;;5050745;28;20029;-80
2022/08/14 00:53:08;;;;;;;6.22;4.15;;;14.00;99.90;;;;;;5047961;28;20539;-80
2022/08/14 00:55:35;;;;;;;7.82;5.00;;;14.00;99.90;;;;;;5049546;28;20037;-79
2022/08/14 01:00:49;;;;;;;7.30;4.05;;;13.90;99.90;;;;;;5050456;28;20122;-80
2022/08/14 01:03:16;;;;;;;4.45;3.80;;;13.80;99.90;;;;;;5048441;28;20131;-76
2022/08/14 01:05:48;;;;;;;5.75;4.30;;;13.80;99.90;;;;;;5050220;28;20025;-76
2022/08/14 01:08:23;;;;;;;6.72;4.13;;;13.70;99.90;;;;;;5050435;28;20060;-76
2022/08/14 01:10:49;;;;;;;7.68;4.25;;;13.70;99.90;;;;;;5049901;28;20021;-76
2022/08/14 01:13:19;;;;;;;6.07;3.90;;;13.70;99.90;;;;;;5043879;28;20104;-76
2022/08/14 01:15:48;;;;;;;7.05;4.18;;;13.70;99.90;;;;;;5050215;28;20083;-76
2022/08/14 01:21:02;;;;;;;5.30;4.05;;;13.60;99.90;;;;;;5039079;28;20040;-76
2022/08/14 01:23:28;;;;;;;8.10;4.50;;;13.60;99.90;;;;;;5049656;28;20043;-76
2022/08/14 01:25:54;;;;;;;5.68;4.45;;;13.60;99.90;;;;;;5050139;28;20021;-76
2022/08/14 01:28:21;;;;;;;5.07;3.67;;;13.60;99.90;;;;;;5050036;28;20035;-76
2022/08/14 01:30:48;;;;;;;5.15;3.63;;;13.60;99.90;;;;;;5049479;28;20079;-76
2022/08/14 01:33:15;;;;;;;6.43;3.85;;;13.60;99.90;;;;;;5049830;28;20075;-76
2022/08/14 01:35:45;;;;;;;6.82;3.95;;;13.60;99.90;;;;;;5049933;28;20021;-76
2022/08/14 01:38:13;;;;;;;4.68;3.78;;;13.50;99.90;;;;;;5050105;28;20099;-76
2022/08/14 01:40:39;;;;;;;6.07;3.90;;;13.50;99.90;;;;;;5049670;28;20123;-76
2022/08/14 01:43:14;;;;;;;4.63;3.75;;;13.50;99.90;;;;;;5048470;28;20025;-76
2022/08/14 01:45:41;;;;;;;7.55;3.65;;;13.50;99.90;;;;;;5049897;28;20017;-76
2022/08/14 01:48:08;;;;;;;3.85;3.17;;;13.50;99.90;;;;;;5049749;28;20037;-76
2022/08/14 01:50:33;;;;;;;4.10;3.70;;;13.50;99.90;;;;;;5048992;28;20043;-76
2022/08/14 01:52:59;;;;;;;5.72;4.07;;;13.40;99.90;;;;;;5049590;28;20029;-76
2022/08/14 01:55:30;;;;;;;5.25;3.65;;;13.40;99.90;;;;;;5049601;28;20498;-76
2022/08/14 01:57:57;;;;;;;6.03;3.85;;;13.40;99.90;;;;;;5049941;28;20080;-76
2022/08/14 02:00:23;;;;;;;4.53;3.65;;;13.40;99.90;;;;;;5049314;28;20028;-76
2022/08/14 02:02:49;;;;;;;6.32;3.53;;;13.40;99.90;;;;;;5050487;28;20109;-77
2022/08/14 02:05:16;;;;;;;5.32;3.42;;;13.30;99.90;;;;;;5052065;28;20108;-77
2022/08/14 02:07:45;;;;;;;4.28;3.58;;;13.20;99.90;;;;;;5054454;28;20461;-77
2022/08/14 02:10:12;;;;;;;5.85;3.95;;;13.20;99.90;;;;;;5053307;28;20757;-76
2022/08/14 02:12:39;;;;;;;5.00;3.80;;;13.20;99.90;;;;;;5046749;28;20776;-76
2022/08/14 02:15:08;;;;;;;7.63;4.05;;;13.10;99.90;;;;;;5051404;28;20059;-76
2022/08/14 02:17:34;;;;;;;5.88;4.00;;;13.10;99.90;;;;;;5053184;28;20044;-76
2022/08/14 02:19:59;;;;;;;4.57;3.83;;;13.00;99.90;;;;;;5052757;28;20029;-76
2022/08/14 02:22:25;;;;;;;5.65;3.67;;;13.00;99.90;;;;;;5053384;28;20021;-76
2022/08/14 02:24:51;;;;;;;5.78;4.00;;;13.00;99.90;;;;;;5052868;28;20112;-77
2022/08/14 02:27:17;;;;;;;4.68;3.75;;;13.00;99.90;;;;;;5052368;28;20105;-76
2022/08/14 02:29:43;;;;;;;5.65;3.60;;;12.90;99.90;;;;;;5053109;28;20082;-76
2022/08/14 02:32:10;;;;;;;4.95;4.13;;;12.90;99.90;;;;;;5053188;28;20107;-76
2022/08/14 02:34:37;;;;;;;6.00;4.07;;;12.80;99.90;;;;;;5052958;28;20021;-76
2022/08/14 02:37:08;;;;;;;5.03;4.35;;;12.80;99.90;;;;;;5052036;28;20020;-76
2022/08/14 02:39:39;;;;;;;4.82;4.07;;;12.80;99.90;;;;;;5035074;28;20025;-76
2022/08/14 02:42:08;;;;;;;5.78;4.13;;;12.70;99.90;;;;;;5053157;28;20037;-76
2022/08/14 02:44:33;;;;;;;4.63;4.00;;;12.70;99.90;;;;;;5052401;28;20029;-76
2022/08/14 02:47:00;;;;;;;7.38;4.05;;;12.60;99.90;;;;;;5052187;28;20071;-76
2022/08/14 02:49:27;;;;;;;5.63;4.05;;;12.60;99.90;;;;;;5052680;28;20061;-76
2022/08/14 02:51:55;;;;;;;5.13;4.10;;;12.60;99.90;;;;;;5053225;28;20025;-76
2022/08/14 02:54:22;;;;;;;6.47;4.43;;;12.60;99.90;;;;;;5052179;28;20037;-76
2022/08/14 02:56:49;;;;;;;6.10;3.95;;;12.60;99.90;;;;;;5052803;28;20037;-76
2022/08/14 02:59:16;;;;;;;6.18;4.30;;;12.60;99.90;;;;;;5052478;28;20482;-76
2022/08/14 03:01:41;;;;;;;6.53;4.28;;;12.50;99.90;;;;;;5051153;28;20108;-76
2022/08/14 03:04:09;;;;;;;8.73;4.97;;;12.60;99.90;;;;;;5052252;28;20115;-79
2022/08/14 03:06:35;;;;;;;5.95;4.45;;;12.60;99.90;;;;;;5052561;28;20096;-79
2022/08/14 03:09:01;;;;;;;6.35;4.28;;;12.60;99.90;;;;;;5052455;28;20029;-79
2022/08/14 03:11:26;;;;;;;7.35;4.25;;;12.60;99.90;;;;;;5049747;28;20533;-79
2022/08/14 03:13:52;;;;;;;4.70;4.05;;;12.60;99.90;;;;;;5045345;28;20133;-79
2022/08/14 03:16:23;;;;;;;6.68;4.50;;;12.60;99.90;;;;;;5045442;28;20032;-79
2022/08/14 03:18:57;;;;;;;5.45;4.55;;;12.60;99.90;;;;;;5052188;28;20037;-79
2022/08/14 03:21:23;;;;;;;7.07;4.40;;;12.60;99.90;;;;;;5051695;28;20021;-79
2022/08/14 03:24:01;;;;;;;5.40;3.92;;;12.60;99.90;;;;;;5037034;28;20316;-79
2022/08/14 03:26:28;;;;;;;6.53;4.40;;;12.60;99.90;;;;;;5052096;28;20064;-79
2022/08/14 03:28:54;;;;;;;7.43;4.80;;;12.60;99.90;;;;;;5052088;28;20025;-79
2022/08/14 03:31:20;;;;;;;8.52;4.50;;;12.60;99.90;;;;;;5049934;28;20044;-79
2022/08/14 03:33:46;;;;;;;7.90;4.28;;;12.60;99.90;;;;;;5052013;28;20028;-79
2022/08/14 03:36:13;;;;;;;7.20;4.53;;;12.60;99.90;;;;;;5052053;28;20021;-79
2022/08/14 03:38:43;;;;;;;6.05;4.28;;;12.50;99.90;;;;;;5051838;28;20044;-79
2022/08/14 03:41:13;;;;;;;5.65;4.60;;;12.50;99.90;;;;;;5051759;28;20029;-80
2022/08/14 03:43:39;;;;;;;7.63;5.07;;;12.40;99.90;;;;;;5051179;28;20078;-79
2022/08/14 03:46:05;;;;;;;7.18;4.90;;;12.40;99.90;;;;;;5052040;28;20761;-79
2022/08/14 03:48:31;;;;;;;6.20;3.83;;;12.40;99.90;;;;;;5051606;28;20138;-79
2022/08/14 03:50:58;;;;;;;6.70;4.50;;;12.30;99.90;;;;;;5049889;28;20036;-79
2022/08/14 03:53:24;;;;;;;6.75;4.47;;;12.30;99.90;;;;;;5051765;28;20017;-79
2022/08/14 03:55:49;;;;;;;6.88;4.55;;;12.20;99.90;;;;;;5051400;28;20052;-79
2022/08/14 03:58:16;;;;;;;6.57;4.90;;;12.20;99.90;;;;;;5050110;28;20059;-79
2022/08/14 04:00:44;;;;;;;5.32;4.28;;;12.20;99.90;;;;;;5051249;28;20131;-76
2022/08/14 04:03:12;;;;;;;6.88;4.50;;;12.20;99.90;;;;;;5051686;28;20074;-77
2022/08/14 04:05:37;;;;;;;6.13;4.25;;;12.20;99.90;;;;;;5051956;28;20013;-77
2022/08/14 04:08:07;;;;;;;5.90;4.00;;;12.20;99.90;;;;;;5050933;28;20531;-77
2022/08/14 04:10:33;;;;;;;7.22;4.78;;;12.20;99.90;;;;;;5051448;28;20017;-76
2022/08/14 04:13:04;;;;;;;5.35;4.30;;;12.20;99.90;;;;;;5048572;28;20120;-77
2022/08/14 04:15:32;;;;;;;7.45;5.05;;;12.20;99.90;;;;;;5039312;28;20326;-77
2022/08/14 04:18:02;;;;;;;8.57;5.13;;;12.20;99.90;;;;;;5051684;28;20070;-77
2022/08/14 04:20:28;;;;;;;4.80;4.00;;;12.20;99.90;;;;;;5032997;28;20489;-77
2022/08/14 04:22:54;;;;;;;7.55;4.68;;;12.20;99.90;;;;;;5051626;28;20028;-77
2022/08/14 04:25:19;;;;;;;5.80;4.20;;;12.30;99.90;;;;;;5051947;28;20017;-77
2022/08/14 04:27:45;;;;;;;6.80;5.10;;;12.30;99.90;;;;;;5051732;28;20029;-77
2022/08/14 04:30:11;;;;;;;7.18;4.68;;;12.30;99.90;;;;;;5051188;28;20095;-77
2022/08/14 04:32:36;;;;;;;5.65;4.75;;;12.30;99.90;;;;;;5051813;28;20035;-77
2022/08/14 04:35:03;;;;;;;5.45;4.20;;;12.30;99.90;;;;;;5051632;28;20032;-77
2022/08/14 04:45:42;;;;;;;5.63;4.43;;;12.30;99.90;;;;;;5051896;28;20343;-77
2022/08/14 04:48:15;;;;;;;6.63;4.97;;;12.30;99.90;;;;;;5051417;28;20477;-76
2022/08/14 04:50:46;;;;;;;12.05;4.70;;;12.40;99.90;;;;;;5051083;28;20104;-78
2022/08/14 04:53:14;;;;;;;6.03;4.63;;;12.40;99.90;;;;;;5050986;28;20362;-77
2022/08/14 04:55:41;;;;;;;7.15;4.90;;;12.40;99.90;;;;;;5051518;28;20044;-77
2022/08/14 04:58:08;;;;;;;8.88;4.65;;;12.50;99.90;;;;;;5032851;28;20532;-77
2022/08/14 05:00:33;;;;;;;6.22;4.30;;;12.50;99.90;;;;;;5033506;28;20048;-77
2022/08/14 05:03:02;;;;;;;4.72;4.20;;;12.50;99.90;;;;;;5051222;28;20025;-77
2022/08/14 05:05:28;;;;;;;6.43;4.68;;;12.60;99.90;;;;;;5051189;28;20021;-78
2022/08/14 05:07:53;;;;;;;6.07;4.50;;;12.60;99.90;;;;;;5046612;28;20028;-77
2022/08/14 05:10:23;;;;;;;6.70;4.57;;;12.60;99.90;;;;;;5050936;28;20013;-77
2022/08/14 05:12:51;;;;;;;9.10;4.55;;;12.70;99.90;;;;;;5045525;28;20025;-77
2022/08/14 05:15:20;;;;;;;6.90;4.40;;;12.70;99.90;;;;;;5032269;28;20477;-78
2022/08/14 05:17:45;;;;;;;5.53;4.57;;;12.80;99.90;;;;;;5050252;28;20032;-77
2022/08/14 05:20:11;;;;;;;7.60;4.40;;;12.90;99.90;;;;;;5050330;28;20029;-82
2022/08/14 05:22:37;;;;;;;6.78;4.72;;;12.90;99.90;;;;;;5050732;28;20055;-82
2022/08/14 05:25:03;;;;;;;8.07;4.55;;;13.00;99.90;;;;;;5031902;28;20457;-75
2022/08/14 05:27:29;;;;;;;6.07;4.63;;;13.00;99.90;;;;;;5049272;28;20478;-75
2022/08/14 05:29:55;;;;;;;5.78;4.10;;;13.20;99.90;;;;;;5049539;28;20025;-75
2022/08/14 05:32:21;;;;;;;7.47;4.72;;;13.20;99.90;;;;;;5050239;28;20466;-75
2022/08/14 05:34:46;;;;;;;5.22;4.30;;;13.30;99.90;;;;;;5050036;28;20075;-75
2022/08/14 05:37:13;;;;;;;6.20;4.35;;;13.40;99.90;;;;;;5050472;28;20021;-75
2022/08/14 05:39:40;;;;;;;6.35;4.13;;;13.60;99.90;;;;;;5049826;28;20028;-75
2022/08/14 05:42:06;;;;;;;5.40;4.57;;;13.70;99.90;;;;;;5053433;28;20201;-74
2022/08/14 05:44:32;;;;;;;5.88;4.50;;;13.80;99.90;;;;;;5052880;28;20033;-74
2022/08/14 05:46:58;;;;;;;6.60;3.80;;;13.90;99.90;;;;;;5051653;28;20024;-74
2022/08/14 05:49:24;;;;;;;7.28;4.57;;;14.00;99.90;;;;;;5051630;28;20417;-74
2022/08/14 05:51:49;;;;;;;7.50;4.70;;;14.10;99.90;;;;;;5053333;28;20063;-74
2022/08/14 05:54:15;;;;;;;5.88;4.78;;;14.20;99.90;;;;;;5052772;28;20021;-74
2022/08/14 05:56:40;;;;;;;6.95;4.60;;;14.30;99.90;;;;;;5053284;28;20048;-74
2022/08/14 05:59:06;;;;;;;7.95;4.95;;;14.40;99.90;;;;;;5051762;28;20056;-74
2022/08/14 06:01:31;;;;;;;9.02;4.45;;;14.50;99.90;;;;;;5052972;28;20075;-74
2022/08/14 06:03:57;;;;;;;11.35;4.82;;;14.70;99.90;;;;;;5052521;28;20039;-74
2022/08/14 06:06:23;;;;;;;7.72;4.75;;;14.80;99.90;;;;;;5053129;28;20021;-74
2022/08/14 06:08:48;;;;;;;5.55;4.53;;;15.00;99.90;;;;;;5052824;28;20044;-73
2022/08/14 06:11:14;;;;;;;6.22;4.70;;;15.10;99.90;;;;;;5047539;28;20078;-74
2022/08/14 06:13:41;;;;;;;5.25;4.28;;;15.30;99.90;;;;;;5051370;28;20386;-73
2022/08/14 06:16:07;;;;;;;8.55;4.68;;;15.40;99.90;;;;;;5052732;28;20045;-73
2022/08/14 06:18:34;;;;;;;4.75;4.10;;;15.60;99.90;;;;;;5052121;28;20390;-73
2022/08/14 06:21:01;;;;;;;5.65;3.90;;;15.70;99.90;;;;;;5052403;28;20473;-74
2022/08/14 06:23:26;;;;;;;5.13;4.00;;;15.90;99.90;;;;;;5053195;28;20036;-74
2022/08/14 06:25:52;;;;;;;4.75;3.72;;;16.00;99.90;;;;;;5052997;28;20028;-74
2022/08/14 06:28:19;;;;;;;7.78;4.68;;;16.20;99.90;;;;;;5031901;28;20020;-73
2022/08/14 06:30:45;;;;;;;4.53;3.95;;;16.30;99.90;;;;;;5053164;28;20033;-73
2022/08/14 06:33:11;;;;;;;4.60;3.80;;;16.50;99.90;;;;;;5052180;28;20401;-74
2022/08/14 06:35:37;;;;;;;7.28;4.07;;;16.60;99.90;;;;;;5052648;28;20021;-78
2022/08/14 06:38:03;;;;;;;5.65;4.18;;;16.80;99.90;;;;;;5043529;28;20441;-74
2022/08/14 06:40:31;;;;;;;4.20;3.42;;;16.90;99.90;;;;;;5037068;28;20115;-76
2022/08/14 06:43:05;;;;;;;5.78;3.55;;;17.10;99.90;;;;;;5046050;28;20124;-73
2022/08/14 06:45:32;;;;;;;5.78;3.63;;;17.30;99.90;;;;;;5052454;28;20036;-75
2022/08/14 06:48:00;;;;;;;5.07;3.90;;;17.50;99.90;;;;;;5047448;28;20036;-74
2022/08/14 06:50:26;;;;;;;4.80;4.00;;;17.70;99.90;;;;;;5049267;28;20067;-75
2022/08/14 06:52:53;;;;;;;5.20;3.67;;;17.90;99.90;;;;;;5049063;28;20029;-75
2022/08/14 06:55:18;;;;;;;5.05;3.47;;;18.10;99.90;;;;;;5066360;22;20516;-75
2022/08/14 06:57:46;;;;;;;7.63;3.92;;;18.30;99.90;;;;;;5033096;28;20053;-70
2022/08/14 07:00:18;;;;;;;7.07;3.50;;;18.40;99.90;;;;;;5032793;28;20378;-75
2022/08/14 07:08:17;;;;;;;3.20;2.80;;;18.90;99.90;;;;;;5033957;28;20090;-74
2022/08/14 07:10:50;;;;;;;5.82;3.15;;;19.10;99.90;;;;;;5002895;28;20025;-75
2022/08/14 07:13:18;;;;;;;6.13;3.20;;;19.20;99.90;;;;;;5029698;28;20036;-75
2022/08/14 07:15:46;;;;;;;4.70;3.40;;;19.40;99.90;;;;;;5031533;28;20849;-73
2022/08/14 07:18:12;;;;;;;4.90;3.35;;;19.60;99.90;;;;;;5032212;28;20038;-73
2022/08/14 07:20:39;;;;;;;5.55;2.65;;;19.70;99.90;;;;;;5032032;28;20036;-75
2022/08/14 07:23:07;;;;;;;2.97;2.60;;;19.90;99.90;;;;;;5030835;28;21375;-73
2022/08/14 07:25:33;;;;;;;6.00;2.95;;;20.10;99.90;;;;;;5029151;28;20026;-72
2022/08/14 07:28:07;;;;;;;3.83;2.58;;;20.20;99.90;;;;;;5035205;28;20032;-72
2022/08/14 07:30:32;;;;;;;3.47;2.45;;;20.40;99.90;;;;;;5041603;28;20056;-71
2022/08/14 07:32:58;;;;;;;3.00;2.30;;;20.60;99.90;;;;;;5043429;28;20061;-72
2022/08/14 07:35:23;;;;;;;2.72;2.22;;;20.70;99.90;;;;;;5035163;28;20025;-72
2022/08/14 07:37:49;;;;;;;4.45;2.70;;;20.90;99.90;;;;;;5034196;28;20022;-73
2022/08/14 07:40:16;;;;;;;3.53;2.67;;;21.00;99.90;;;;;;5020683;28;20028;-73
2022/08/14 07:42:42;;;;;;;5.22;2.80;;;21.20;99.90;;;;;;5024871;28;20034;-73
2022/08/14 07:45:08;;;;;;;5.60;2.50;;;21.30;99.90;;;;;;5023514;28;20032;-79
2022/08/14 07:47:38;;;;;;;3.25;2.47;;;21.40;99.90;;;;;;5025585;28;20021;-73
2022/08/14 07:50:11;;;;;;;3.40;2.60;;;21.60;99.90;;;;;;5024474;28;20033;-69
2022/08/14 07:52:37;;;;;;;4.85;2.38;;;21.70;99.90;;;;;;5024873;28;20461;-69
2022/08/14 07:55:03;;;;;;;6.15;2.80;;;21.80;99.90;;;;;;5021605;28;20032;-74
2022/08/14 07:57:29;;;;;;;3.97;2.55;;;21.90;99.90;;;;;;5012880;28;20050;-74
2022/08/14 07:59:55;;;;;;;5.47;2.60;;;22.00;99.90;;;;;;5013666;28;20064;-74
2022/08/14 08:02:21;;;;;;;2.97;2.30;;;22.20;99.90;;;;;;5018694;28;20034;-74
2022/08/14 08:04:54;;;;;;;5.03;2.58;;;22.30;99.90;;;;;;5022765;28;20045;-75
2022/08/14 08:07:20;;;;;;;2.78;2.35;;;22.30;99.90;;;;;;5018571;28;20104;-74
2022/08/14 08:09:51;;;;;;;3.00;2.10;;;22.40;99.90;;;;;;5020012;28;20554;-74
2022/08/14 08:12:19;;;;;;;6.22;2.50;;;22.60;99.90;;;;;;5020702;28;20064;-74
2022/08/14 08:14:47;;;;;;;5.28;2.58;;;22.70;99.90;;;;;;5018359;28;20038;-75
2022/08/14 08:17:14;;;;;;;4.28;2.70;;;22.80;99.90;;;;;;5015295;28;20048;-75
2022/08/14 08:19:39;;;;;;;5.40;2.63;;;22.80;99.90;;;;;;5016953;28;20139;-74
2022/08/14 08:22:05;;;;;;;3.50;2.17;;;22.90;99.90;;;;;;5018335;28;20755;-74
2022/08/14 08:24:31;;;;;;;5.30;2.20;;;22.90;99.90;;;;;;5019259;28;20103;-74
2022/08/14 08:26:56;;;;;;;3.28;2.40;;;23.00;99.90;;;;;;5017251;28;20476;-74
2022/08/14 08:29:25;;;;;;;3.15;2.85;;;23.00;99.90;;;;;;5017734;28;20682;-74
2022/08/14 08:31:51;;;;;;;6.63;2.70;;;23.10;99.90;;;;;;5019952;28;20059;-74
2022/08/14 08:34:18;;;;;;;4.35;2.22;;;23.20;99.90;;;;;;5022224;28;20013;-69
2022/08/14 08:36:44;;;;;;;3.30;2.60;;;23.30;99.90;;;;;;5021629;28;20045;-70
2022/08/14 08:39:11;;;;;;;2.67;2.10;;;23.40;99.90;;;;;;5004010;28;20025;-69
2022/08/14 08:41:46;;;;;;;3.10;2.60;;;23.50;99.90;;;;;;5020063;28;20032;-69
2022/08/14 08:44:12;;;;;;;5.82;2.75;;;23.50;99.90;;;;;;5021067;28;20039;-69
2022/08/14 08:46:38;;;;;;;3.00;2.45;;;23.70;99.90;;;;;;5023714;28;20034;-69
2022/08/14 08:49:04;;;;;;;3.20;2.30;;;23.70;99.90;;;;;;5026222;28;20026;-69
2022/08/14 08:51:37;;;;;;;3.75;2.60;;;23.80;99.90;;;;;;5018943;28;20039;-69
2022/08/14 08:54:15;;;;;;;3.83;2.05;;;23.90;99.90;;;;;;5032650;28;20022;-69
2022/08/14 08:56:45;;;;;;;5.70;2.67;;;24.00;99.90;;;;;;5019283;28;20046;-69
2022/08/14 08:59:15;;;;;;;4.47;2.72;;;24.10;99.90;;;;;;5032612;28;20478;-69
2022/08/14 09:01:45;;;;;;;4.30;2.42;;;24.10;99.90;;;;;;5032513;28;20033;-69
2022/08/14 09:04:12;;;;;;;3.33;2.42;;;24.30;99.90;;;;;;5032474;28;20425;-70
2022/08/14 09:06:49;;;;;;;4.07;2.70;;;24.40;99.90;;;;;;5032562;28;20458;-69
2022/08/14 09:09:25;;;;;;;5.95;2.30;;;24.40;99.90;;;;;;5032496;28;20034;-69
2022/08/14 09:11:53;;;;;;;3.88;2.40;;;24.60;99.90;;;;;;5032183;28;20470;-70
2022/08/14 09:14:24;;;;;;;3.33;2.33;;;24.70;99.90;;;;;;5031585;28;20484;-69
2022/08/14 09:16:50;;;;;;;3.45;2.30;;;24.80;99.90;;;;;;5032342;28;20494;-69
2022/08/14 09:19:16;;;;;;;4.03;2.92;;;25.00;99.90;;;;;;5032214;28;20087;-69
2022/08/14 09:21:42;;;;;;;3.60;2.40;;;25.10;99.90;;;;;;5032104;28;20761;-69
2022/08/14 09:24:08;;;;;;;4.03;2.30;;;25.20;99.90;;;;;;5032587;28;20044;-69
2022/08/14 09:26:35;;;;;;;5.85;2.47;;;25.40;99.90;;;;;;5032295;28;20029;-70
2022/08/14 09:29:04;;;;;;;4.35;2.28;;;25.60;99.90;;;;;;5032169;28;20022;-69
2022/08/14 09:31:32;;;;;;;3.83;2.65;;;25.70;99.90;;;;;;5032665;28;20356;-69
2022/08/14 09:34:28;;;;;;;5.68;2.45;;;26.00;99.90;;;;;;5014338;28;20439;-69
2022/08/14 09:37:15;;;;;;;2.58;2.38;;;26.10;99.90;;;;;;5027906;28;20120;-69
2022/08/14 09:40:13;;;;;;;3.33;2.13;;;26.30;98.90;;;;;;5031827;28;20467;-69
2022/08/14 09:43:05;;;;;;;2.55;2.30;;;26.40;99.10;;;;;;5021449;28;20033;-70
2022/08/14 09:45:40;;;;;;;6.25;2.13;;;26.70;98.30;;;;;;5030098;28;20109;-69
2022/08/14 09:48:17;;;;;;;3.80;2.50;;;26.90;98.30;;;;;;5031535;28;20033;-70
2022/08/14 09:50:51;;;;;;;3.25;2.50;;;27.20;97.00;;;;;;5029357;28;20037;-69
2022/08/14 09:53:31;;;;;;;;;;;27.50;96.20;;;;;;5031652;28;20029;-69
2022/08/14 09:55:58;;;;;;;4.68;2.40;;;27.60;95.80;;;;;;5031815;28;20011;-70
2022/08/14 09:58:44;;;;;;;5.13;2.55;;;27.70;94.80;;;;;;5032213;28;20026;-69
2022/08/14 10:01:20;;;;;;;2.72;2.50;;;27.80;94.30;;;;;;5027550;28;20029;-68
2022/08/14 10:03:58;;;;;;;3.67;2.28;;;28.00;94.10;;;;;;5031770;28;20071;-69
2022/08/14 10:06:28;;;;;;;3.72;2.40;;;28.20;92.80;;;;;;5028415;28;20164;-69
2022/08/14 10:09:00;;;;;;;3.35;2.50;;;28.20;93.10;;;;;;5029873;28;20037;-69
2022/08/14 10:11:29;;;;;;;2.65;2.40;;;28.30;92.50;;;;;;5029090;28;20033;-69
2022/08/14 10:13:58;;;;;;;3.80;2.40;;;28.30;92.40;;;;;;5026168;28;20058;-69
2022/08/14 10:16:28;;;;;;;4.07;2.50;;;28.40;91.50;;;;;;5026568;28;20026;-69
2022/08/14 10:19:05;;;;;;;3.55;2.55;;;28.60;92.20;;;;;;5028011;28;20080;-69
2022/08/14 10:21:33;;;;;;;3.33;2.70;;;28.80;90.50;;;;;;5031483;28;20475;-69
2022/08/14 10:23:59;;;;;;;3.72;2.63;;;28.70;90.30;;;;;;5031641;28;20026;-69
2022/08/14 10:26:25;;;;;;;3.17;2.42;;;28.90;90.80;;;;;;5032949;28;20071;-69
2022/08/14 10:28:52;;;;;;;2.67;2.13;;;29.10;86.50;;;;;;5034869;28;20029;-69
2022/08/14 10:31:19;;;;;;;3.58;2.75;;;29.10;86.90;;;;;;5034699;28;20059;-70
2022/08/14 10:34:06;;;;;;;2.88;2.30;;;29.20;84.80;;;;;;5033142;28;20355;-76
2022/08/14 10:36:40;;;;;;;3.53;2.40;;;29.30;84.00;;;;;;5027717;28;20124;-75
2022/08/14 10:39:15;;;;;;;5.05;2.70;;;29.40;81.30;;;;;;5030814;28;20108;-75
2022/08/14 10:41:42;;;;;;;4.15;2.60;;;29.40;81.90;;;;;;5028559;28;20102;-75
2022/08/14 10:44:16;;;;;;;2.78;2.47;;;29.40;82.80;;;;;;5030380;28;20040;-76
2022/08/14 10:47:08;;;;;;;11.80;8.32;;;29.50;82.30;;;;;;5032937;28;20048;-76
2022/08/14 10:49:35;;;;;;;3.20;2.50;;;29.70;82.90;;;;;;5032151;28;20025;-76
2022/08/14 10:52:07;;;;;;;5.30;2.42;;;29.90;77.00;;;;;;5033111;28;20049;-76
2022/08/14 10:54:40;;;;;;;5.95;2.20;;;30.20;77.80;;;;;;5031527;28;20037;-76
2022/08/14 10:57:23;;;;;;;2.58;2.05;;;30.40;76.20;;;;;;5032802;28;20048;-76
2022/08/14 10:59:51;;;;;;;3.78;2.05;;;30.50;72.60;;;;;;5030487;28;20105;-75
2022/08/14 11:02:20;;;;;;;2.55;2.00;;;30.60;70.20;;;;;;5032806;28;20434;-76
2022/08/14 11:05:13;;;;;;;3.80;2.33;;;30.60;71.80;;;;;;5032567;28;20034;-76
2022/08/14 11:07:41;;;;;;;4.35;2.17;;;30.60;73.00;;;;;;5033056;28;20029;-73
2022/08/14 11:10:12;;;;;;;4.05;2.28;;;30.80;73.90;;;;;;5035960;28;20021;-73
2022/08/14 11:12:46;;;;;;;2.95;2.20;;;30.90;71.40;;;;;;5017800;28;20033;-73
2022/08/14 11:15:24;;;;;;;6.10;2.35;;;30.90;69.80;;;;;;5035683;28;20022;-73
2022/08/14 11:17:50;;;;;;;4.38;2.10;;;30.80;70.30;;;;;;5033574;28;20429;-70
2022/08/14 11:20:19;;;;;;;3.45;2.15;;;31.00;69.50;;;;;;5034716;28;20159;-69
2022/08/14 11:22:45;;;;;;;2.17;1.98;;;31.00;68.80;;;;;;5034441;28;20022;-69
2022/08/14 11:25:13;;;;;;;3.30;2.13;;;31.30;69.10;;;;;;5020619;28;20398;-70
2022/08/14 11:27:42;;;;;;;4.10;2.08;;;31.40;67.70;;;;;;5032246;28;20540;-70
2022/08/14 11:30:14;;;;;;;3.63;2.33;;;31.40;66.60;;;;;;5034364;28;20033;-69
2022/08/14 11:32:42;;;;;;;2.88;2.13;;;31.50;65.70;;;;;;5034111;28;20101;-69
2022/08/14 11:35:15;;;;;;;3.30;2.10;;;31.60;64.70;;;;;;5030058;28;20026;-69
2022/08/14 11:38:11;;;;;;;2.20;1.90;;;31.80;65.20;;;;;;5014930;28;20501;-70
2022/08/14 11:40:38;;;;;;;3.72;2.35;;;31.80;62.20;;;;;;5020397;28;20029;-69
2022/08/14 11:43:06;;;;;;;2.30;2.00;;;31.50;64.10;;;;;;5034496;28;20029;-69
2022/08/14 11:45:37;;;;;;;4.63;1.88;;;31.50;63.90;;;;;;5031378;28;20056;-75
2022/08/14 11:48:27;;;;;;;2.85;2.00;;;31.80;64.50;;;;;;5032339;28;20108;-76
2022/08/14 11:50:53;;;;;;;3.40;2.22;;;32.20;64.20;;;;;;5031768;28;20472;-76
2022/08/14 11:53:30;;;;;;;3.78;2.10;;;32.30;63.50;;;;;;5030994;28;20052;-73
2022/08/14 11:56:04;;;;;;;5.13;2.20;;;32.20;62.40;;;;;;5034617;28;20046;-73
2022/08/14 11:58:32;;;;;;;2.15;1.95;;;32.30;61.10;;;;;;5034711;28;20436;-73
2022/08/14 12:01:01;;;;;;;2.83;2.00;;;32.50;63.00;;;;;;5034695;28;20029;-73
2022/08/14 12:03:48;;;;;;;1.90;1.60;;;32.50;60.50;;;;;;5016756;28;20485;-70
2022/08/14 12:06:18;;;;;;;2.55;1.75;;;32.70;58.10;;;;;;5014496;28;20037;-76
2022/08/14 12:08:52;;;;;;;7.55;1.90;;;32.90;58.50;;;;;;5029460;28;20441;-76
2022/08/14 12:11:17;;;;;;;5.32;2.47;;;33.00;55.70;;;;;;5028892;28;20045;-75
2022/08/14 12:13:43;;;;;;;4.30;2.10;;;32.90;58.20;;;;;;5014105;28;20076;-76
2022/08/14 12:16:15;;;;;;;2.67;2.10;;;33.00;58.10;;;;;;5021634;28;20029;-76
2022/08/14 12:18:49;;;;;;;5.15;2.20;;;32.90;57.50;;;;;;5028462;28;20024;-75
2022/08/14 12:21:20;;;;;;;3.00;2.20;;;33.10;57.90;;;;;;5028734;28;20116;-76
2022/08/14 12:23:58;;;;;;;4.25;1.95;;;33.00;58.70;;;;;;5031089;28;20092;-76
2022/08/14 12:26:24;;;;;;;3.35;2.13;;;33.10;57.60;;;;;;5013261;28;20390;-75
2022/08/14 12:28:50;;;;;;;4.38;2.22;;;33.10;58.30;;;;;;5022557;28;20041;-74
2022/08/14 12:31:18;;;;;;;2.75;2.10;;;33.30;56.40;;;;;;5029354;28;20466;-74
2022/08/14 12:33:56;;;;;;;2.83;2.13;;;33.50;56.40;;;;;;5030554;28;20033;-74
2022/08/14 12:36:21;;;;;;;3.53;1.90;;;33.30;56.10;;;;;;5029200;28;20072;-75
2022/08/14 12:38:50;;;;;;;4.85;2.00;;;33.20;54.90;;;;;;5030383;28;20474;-75
2022/08/14 12:41:19;;;;;;;2.28;1.95;;;33.40;54.60;;;;;;5030826;28;20025;-75
2022/08/14 12:43:55;;;;;;;2.90;2.08;;;33.50;55.20;;;;;;5024695;28;20061;-75
2022/08/14 12:46:22;;;;;;;3.22;1.83;;;33.80;55.20;;;;;;5029016;28;20037;-74
2022/08/14 12:48:49;;;;;;;2.80;2.20;;;34.30;55.90;;;;;;5027621;28;20033;-72
2022/08/14 12:51:24;;;;;;;2.95;2.45;;;34.40;58.10;;;;;;5033867;28;20013;-72
2022/08/14 12:53:52;;;;;;;2.97;2.28;;;34.50;58.30;;;;;;5033663;28;20025;-73
2022/08/14 12:56:20;;;;;;;3.08;2.10;;;34.40;59.20;;;;;;5033428;28;20342;-72
2022/08/14 12:58:49;;;;;;;3.22;2.13;;;34.10;57.40;;;;;;5033389;28;20040;-72
2022/08/14 13:01:23;;;;;;;5.80;2.45;;;33.80;59.10;;;;;;5033675;28;20084;-72
2022/08/14 13:03:49;;;;;;;4.85;2.25;;;33.80;60.80;;;;;;5033488;28;20021;-73
2022/08/14 13:06:15;;;;;;;2.08;1.80;;;33.80;55.70;;;;;;5033472;28;20113;-72
2022/08/14 13:08:43;;;;;;;6.13;2.30;;;33.70;53.30;;;;;;5033203;28;20025;-73
2022/08/14 13:11:12;;;;;;;6.18;2.38;;;33.60;54.10;;;;;;5030478;28;20381;-75
2022/08/14 13:13:43;;;;;;;3.58;2.25;;;33.70;56.80;;;;;;5013692;28;20666;-75
2022/08/14 13:16:12;;;;;;;5.72;2.17;;;33.70;57.50;;;;;;5030650;28;20041;-74